Time;durP1;ratioP1;P1;durP2;ratioP2;P2;SDS_P1;SDS_P2;PMS_P1;PMS_P2;Temp;Humidity;BMP_temperature;BMP_pressure;BME280_temperature;BME280_humidity;BME280_pressure;Samples;Min_cycle;Max_cycle;Signal;HPM_P1;HPM_P2
2021/03/28 00:00:01;;;;;;;13.23;5.13;;;7.10;99.90;;;;;;4925742;29;20207;-82
2021/03/28 00:02:50;;;;;;;9.47;3.17;;;7.10;99.90;;;;;;4930847;29;20200;-82
2021/03/28 00:05:36;;;;;;;16.00;4.80;;;7.10;99.90;;;;;;4938066;29;20730;-81
2021/03/28 00:08:26;;;;;;;12.27;4.83;;;7.10;99.90;;;;;;4936590;29;20271;-80
2021/03/28 00:11:20;;;;;;;14.53;5.60;;;7.10;99.90;;;;;;4928678;29;20234;-83
2021/03/28 00:14:06;;;;;;;18.60;5.03;;;7.10;99.90;;;;;;4925568;29;20239;-82
2021/03/28 00:16:52;;;;;;;15.27;4.70;;;7.20;99.90;;;;;;4929574;29;20210;-83
2021/03/28 00:19:37;;;;;;;13.17;5.23;;;7.20;99.90;;;;;;4931423;29;20243;-84
2021/03/28 00:22:26;;;;;;;14.70;5.97;;;7.20;99.90;;;;;;4932785;29;20251;-82
2021/03/28 00:25:15;;;;;;;11.70;5.03;;;7.20;99.90;;;;;;4927350;29;20254;-83
2021/03/28 00:28:06;;;;;;;17.70;5.30;;;7.30;99.90;;;;;;4930909;29;20208;-83
2021/03/28 00:30:52;;;;;;;13.83;5.23;;;7.30;99.90;;;;;;4935045;29;20759;-82
2021/03/28 00:33:38;;;;;;;23.27;6.53;;;7.30;99.90;;;;;;4925981;29;20249;-82
2021/03/28 00:36:31;;;;;;;15.93;6.40;;;7.30;99.90;;;;;;4927460;29;20215;-82
2021/03/28 00:39:45;;;;;;;16.27;5.90;;;7.40;99.90;;;;;;4930913;29;20271;-81
2021/03/28 00:42:34;;;;;;;17.83;6.87;;;7.40;99.90;;;;;;4932336;29;20223;-82
2021/03/28 00:45:24;;;;;;;12.67;5.30;;;7.40;99.90;;;;;;4936052;29;20228;-83
2021/03/28 00:48:13;;;;;;;15.47;5.30;;;7.40;99.90;;;;;;4928213;29;20208;-83
2021/03/28 00:51:09;;;;;;;14.60;5.53;;;7.40;99.90;;;;;;4921249;29;20264;-82
2021/03/28 00:53:57;;;;;;;24.80;5.93;;;7.40;99.90;;;;;;4925470;29;20274;-82
2021/03/28 00:56:45;;;;;;;13.83;5.67;;;7.40;99.90;;;;;;4931810;29;20307;-83
2021/03/28 00:59:35;;;;;;;11.33;5.47;;;7.40;99.90;;;;;;4929927;29;20748;-81
2021/03/28 01:02:27;;;;;;;16.83;5.63;;;7.40;99.90;;;;;;4930702;29;20307;-82
2021/03/28 01:05:29;;;;;;;19.40;5.93;;;7.40;99.90;;;;;;4930084;29;20206;-82
2021/03/28 01:08:21;;;;;;;18.57;5.50;;;7.40;99.90;;;;;;4936441;29;20246;-81
2021/03/28 01:11:20;;;;;;;11.77;4.83;;;7.40;99.90;;;;;;4929749;29;20586;-83
2021/03/28 01:14:21;;;;;;;13.17;4.23;;;7.40;99.90;;;;;;4932031;29;20265;-80
2021/03/28 01:17:36;;;;;;;14.87;4.97;;;7.40;99.90;;;;;;4928048;29;20219;-82
2021/03/28 01:20:41;;;;;;;17.43;4.43;;;7.40;99.90;;;;;;4933530;29;20206;-81
2021/03/28 01:23:34;;;;;;;11.87;4.10;;;7.40;99.90;;;;;;4935897;29;20207;-81
2021/03/28 01:26:49;;;;;;;14.13;4.80;;;7.40;99.90;;;;;;4932632;29;20681;-82
2021/03/28 01:29:39;;;;;;;12.77;3.57;;;7.40;99.90;;;;;;4933734;29;20210;-83
2021/03/28 01:32:30;;;;;;;13.67;4.60;;;7.30;99.90;;;;;;4935226;29;20226;-83
2021/03/28 01:35:22;;;;;;;19.87;5.30;;;7.40;99.90;;;;;;4934783;29;20311;-84
2021/03/28 01:38:13;;;;;;;10.87;4.20;;;7.30;99.90;;;;;;4938188;29;20202;-84
2021/03/28 01:41:01;;;;;;;15.30;4.40;;;7.30;99.90;;;;;;4932539;29;20272;-83
2021/03/28 01:43:52;;;;;;;16.37;4.23;;;7.20;99.90;;;;;;4935291;29;20260;-83
2021/03/28 01:46:50;;;;;;;17.57;4.37;;;7.20;99.90;;;;;;4937625;29;20223;-83
2021/03/28 01:49:50;;;;;;;15.03;4.93;;;7.20;99.90;;;;;;4935530;29;20315;-82
2021/03/28 01:52:40;;;;;;;8.03;3.67;;;7.20;99.90;;;;;;4925869;29;20218;-84
2021/03/28 01:55:31;;;;;;;13.70;4.50;;;7.10;99.90;;;;;;4924839;29;20227;-82
2021/03/28 01:58:26;;;;;;;14.37;4.30;;;7.10;99.90;;;;;;4931663;29;20219;-82
2021/03/28 02:01:20;;;;;;;14.60;4.60;;;7.10;99.90;;;;;;4933575;29;20283;-81
2021/03/28 02:04:14;;;;;;;10.27;4.40;;;7.10;99.90;;;;;;4929268;29;20204;-82
2021/03/28 02:07:12;;;;;;;7.30;3.30;;;7.10;99.90;;;;;;4953325;29;20196;-79
2021/03/28 02:10:16;;;;;;;15.70;4.23;;;7.10;99.90;;;;;;4954980;29;20191;-79
2021/03/28 02:13:12;;;;;;;9.53;3.60;;;7.10;99.90;;;;;;4957341;29;20219;-79
2021/03/28 02:16:12;;;;;;;12.20;3.70;;;7.00;99.90;;;;;;4950843;29;20293;-84
2021/03/28 02:19:10;;;;;;;11.63;3.70;;;7.10;99.90;;;;;;4940312;29;20211;-84
2021/03/28 02:22:10;;;;;;;8.43;3.47;;;7.10;99.90;;;;;;4934863;29;20234;-84
2021/03/28 02:25:05;;;;;;;10.80;3.70;;;7.00;99.90;;;;;;4945219;29;20289;-79
2021/03/28 02:27:57;;;;;;;14.73;4.73;;;7.10;99.90;;;;;;4937418;29;20227;-82
2021/03/28 02:30:53;;;;;;;9.13;4.17;;;7.10;99.90;;;;;;4936219;29;20238;-80
2021/03/28 02:33:49;;;;;;;11.77;3.77;;;7.10;99.90;;;;;;4930116;29;20211;-83
2021/03/28 02:36:39;;;;;;;12.67;3.83;;;7.10;99.90;;;;;;4927805;29;20231;-84
2021/03/28 02:39:28;;;;;;;14.00;3.83;;;7.10;99.90;;;;;;4922770;29;20207;-83
2021/03/28 02:42:19;;;;;;;8.63;2.93;;;7.10;99.90;;;;;;4930228;29;20689;-84
2021/03/28 02:45:17;;;;;;;9.80;3.90;;;7.10;99.90;;;;;;4932563;29;20225;-83
2021/03/28 02:48:25;;;;;;;10.90;3.93;;;7.10;99.90;;;;;;4935726;29;20270;-80
2021/03/28 02:51:28;;;;;;;12.73;3.77;;;7.10;99.90;;;;;;4925060;29;20251;-82
2021/03/28 02:54:53;;;;;;;8.87;3.80;;;7.10;99.90;;;;;;4925762;29;20211;-80
2021/03/28 02:57:53;;;;;;;13.50;3.80;;;7.10;99.90;;;;;;4928997;29;20243;-82
2021/03/28 03:00:52;;;;;;;9.20;3.03;;;7.10;99.90;;;;;;4923907;29;20284;-82
2021/03/28 03:03:58;;;;;;;11.70;3.27;;;7.10;99.90;;;;;;4939427;29;20247;-81
2021/03/28 03:07:01;;;;;;;16.60;3.47;;;7.10;99.90;;;;;;4936893;29;20286;-80
2021/03/28 03:10:07;;;;;;;8.97;3.67;;;7.10;99.90;;;;;;4928931;29;20203;-82
2021/03/28 03:13:03;;;;;;;13.40;3.40;;;7.00;99.90;;;;;;4930768;29;20284;-80
2021/03/28 03:15:57;;;;;;;11.33;4.03;;;7.10;99.90;;;;;;4935397;29;20206;-82
2021/03/28 03:19:15;;;;;;;13.20;4.43;;;7.00;99.90;;;;;;4927499;29;20206;-79
2021/03/28 03:22:54;;;;;;;9.70;3.63;;;7.00;99.90;;;;;;4930812;29;20334;-83
2021/03/28 03:26:08;;;;;;;10.63;3.67;;;7.00;99.90;;;;;;4931089;29;20199;-82
2021/03/28 03:29:39;;;;;;;10.67;4.60;;;7.00;99.90;;;;;;4935838;29;20219;-82
2021/03/28 03:32:44;;;;;;;13.10;4.17;;;7.00;99.90;;;;;;4870418;29;20269;-80
2021/03/28 03:35:40;;;;;;;11.43;3.50;;;7.00;99.90;;;;;;4934506;29;20714;-82
2021/03/28 03:38:45;;;;;;;14.70;4.47;;;7.00;99.90;;;;;;4936535;29;20327;-79
2021/03/28 03:42:07;;;;;;;15.03;4.63;;;7.00;99.90;;;;;;4937118;29;20767;-82
2021/03/28 03:45:24;;;;;;;8.40;3.93;;;7.00;99.90;;;;;;4932937;29;20226;-82
2021/03/28 03:48:18;;;;;;;14.10;4.00;;;6.90;99.90;;;;;;4935390;29;20763;-82
2021/03/28 03:51:32;;;;;;;9.47;4.03;;;6.90;99.90;;;;;;4930292;29;20572;-82
2021/03/28 03:54:31;;;;;;;11.23;3.57;;;6.90;99.90;;;;;;4928512;29;20737;-81
2021/03/28 03:57:32;;;;;;;16.60;4.23;;;6.80;99.90;;;;;;4930682;29;20207;-82
2021/03/28 04:00:22;;;;;;;9.30;4.27;;;6.80;99.90;;;;;;4925521;29;20252;-82
2021/03/28 04:03:16;;;;;;;15.13;5.03;;;6.80;99.90;;;;;;4920894;29;20268;-82
2021/03/28 04:06:30;;;;;;;10.80;4.33;;;6.80;99.90;;;;;;4924120;29;20295;-82
2021/03/28 04:09:28;;;;;;;13.23;3.70;;;6.80;99.90;;;;;;4959086;29;20227;-83
2021/03/28 04:12:40;;;;;;;12.67;4.77;;;6.80;99.90;;;;;;4945413;29;20227;-82
2021/03/28 04:15:35;;;;;;;9.17;4.30;;;6.90;99.90;;;;;;4948352;29;20618;-81
2021/03/28 04:18:39;;;;;;;11.90;4.57;;;6.90;99.90;;;;;;4939127;29;20243;-83
2021/03/28 04:21:36;;;;;;;6.17;3.13;;;6.90;99.90;;;;;;4937416;29;20299;-83
2021/03/28 04:24:32;;;;;;;14.00;4.67;;;6.90;99.90;;;;;;4933865;29;20637;-83
2021/03/28 04:27:37;;;;;;;13.57;4.47;;;6.90;99.90;;;;;;4934287;29;20308;-83
2021/03/28 04:30:40;;;;;;;17.07;5.50;;;6.90;99.90;;;;;;4937995;29;20294;-81
2021/03/28 04:33:35;;;;;;;10.53;4.30;;;6.90;99.90;;;;;;4938355;29;20293;-83
2021/03/28 04:36:31;;;;;;;12.43;4.43;;;6.90;99.90;;;;;;4925755;29;20219;-83
2021/03/28 04:39:28;;;;;;;13.13;4.33;;;6.90;99.90;;;;;;4936033;29;20210;-83
2021/03/28 04:42:40;;;;;;;10.13;3.83;;;6.90;99.90;;;;;;4930010;29;20222;-84
2021/03/28 04:45:54;;;;;;;10.73;4.20;;;6.90;99.90;;;;;;4935988;29;20227;-79
2021/03/28 04:48:59;;;;;;;9.33;3.67;;;6.90;99.90;;;;;;4927941;29;20264;-83
2021/03/28 04:52:14;;;;;;;13.93;4.37;;;7.00;99.90;;;;;;4925922;29;20784;-82
2021/03/28 04:55:36;;;;;;;11.87;4.10;;;7.00;99.90;;;;;;4932529;29;20271;-83
2021/03/28 04:58:45;;;;;;;12.27;4.20;;;7.00;99.90;;;;;;4928478;29;20216;-83
2021/03/28 05:01:39;;;;;;;11.80;3.93;;;7.00;99.90;;;;;;4940063;29;20279;-83
2021/03/28 05:04:38;;;;;;;9.10;3.07;;;7.00;99.90;;;;;;4934611;29;20223;-82
2021/03/28 05:07:54;;;;;;;13.70;4.03;;;7.00;99.90;;;;;;4933453;29;20203;-83
2021/03/28 05:11:04;;;;;;;13.00;3.90;;;7.00;99.90;;;;;;4935560;29;20219;-83
2021/03/28 05:14:28;;;;;;;10.37;4.63;;;7.00;99.90;;;;;;4945686;29;20202;-79
2021/03/28 05:17:41;;;;;;;9.83;3.30;;;7.00;99.90;;;;;;4947269;29;20232;-81
2021/03/28 05:20:49;;;;;;;9.93;3.60;;;7.00;99.90;;;;;;4934071;29;20230;-82
2021/03/28 05:24:07;;;;;;;12.53;3.40;;;7.00;99.90;;;;;;4931840;29;20203;-83
2021/03/28 05:27:28;;;;;;;10.20;3.00;;;7.00;99.90;;;;;;4884757;29;20214;-83
2021/03/28 05:30:45;;;;;;;11.53;3.73;;;7.10;99.90;;;;;;4921120;29;20709;-83
2021/03/28 05:34:00;;;;;;;13.90;3.97;;;7.10;99.90;;;;;;4934806;29;20752;-84
2021/03/28 05:37:12;;;;;;;6.43;2.90;;;7.10;99.90;;;;;;4938626;29;20396;-83
2021/03/28 05:40:21;;;;;;;17.30;4.93;;;7.20;99.90;;;;;;4927972;29;20212;-80
2021/03/28 05:43:40;;;;;;;9.30;3.37;;;7.30;99.90;;;;;;4931808;29;20206;-81
2021/03/28 05:46:44;;;;;;;8.60;2.60;;;7.30;99.90;;;;;;4926636;29;20207;-81
2021/03/28 05:49:51;;;;;;;11.17;3.67;;;7.40;99.90;;;;;;4922826;29;20565;-83
2021/03/28 05:53:25;;;;;;;8.07;2.97;;;7.40;99.90;;;;;;4919523;29;20250;-82
2021/03/28 05:57:07;;;;;;;7.53;3.00;;;7.50;99.90;;;;;;4922577;29;20211;-83
2021/03/28 06:00:31;;;;;;;7.27;3.10;;;7.50;99.90;;;;;;4926046;29;20279;-82
2021/03/28 06:03:59;;;;;;;6.33;2.37;;;7.60;99.90;;;;;;4923019;29;20199;-82
2021/03/28 06:07:20;;;;;;;9.10;2.90;;;7.70;99.90;;;;;;4926541;29;20206;-81
2021/03/28 06:10:47;;;;;;;9.47;3.57;;;7.70;99.90;;;;;;4930803;29;20218;-84
2021/03/28 06:14:20;;;;;;;8.73;3.03;;;7.80;99.90;;;;;;4927740;29;20219;-82
2021/03/28 06:17:36;;;;;;;10.00;2.97;;;7.80;99.90;;;;;;4931779;29;20278;-81
2021/03/28 06:20:46;;;;;;;10.77;3.57;;;7.90;99.90;;;;;;4926762;29;20300;-81
2021/03/28 06:24:08;;;;;;;12.07;3.70;;;7.90;99.90;;;;;;4924051;29;20256;-83
2021/03/28 06:27:39;;;;;;;9.97;3.10;;;8.00;99.90;;;;;;4936063;29;20214;-83
2021/03/28 06:30:59;;;;;;;7.00;2.83;;;8.00;99.90;;;;;;4926142;29;20223;-81
2021/03/28 06:34:27;;;;;;;10.43;3.27;;;8.00;99.90;;;;;;4934120;29;20735;-84
2021/03/28 06:37:45;;;;;;;6.33;2.57;;;8.10;99.90;;;;;;4923049;29;20206;-83
2021/03/28 06:40:42;;;;;;;14.80;3.53;;;8.10;99.90;;;;;;4928423;29;20231;-80
2021/03/28 06:44:14;;;;;;;7.30;3.23;;;8.20;99.90;;;;;;4934456;29;20704;-84
2021/03/28 06:47:32;;;;;;;8.63;3.30;;;8.20;99.90;;;;;;4924138;29;20211;-82
2021/03/28 06:50:38;;;;;;;6.70;3.83;;;8.20;99.90;;;;;;4924694;29;20215;-83
2021/03/28 06:53:51;;;;;;;9.37;3.97;;;8.30;99.90;;;;;;4932271;29;20219;-84
2021/03/28 06:57:05;;;;;;;9.40;3.83;;;8.30;99.90;;;;;;4933177;29;20226;-84
2021/03/28 07:00:14;;;;;;;11.77;3.93;;;8.30;99.90;;;;;;4926380;29;20701;-83
2021/03/28 07:03:41;;;;;;;10.63;4.10;;;8.40;99.90;;;;;;4931611;29;20286;-82
2021/03/28 07:06:35;;;;;;;8.80;3.60;;;8.40;99.90;;;;;;4915723;29;20610;-81
2021/03/28 07:09:41;;;;;;;6.20;2.90;;;8.40;99.90;;;;;;4930976;29;20215;-82
2021/03/28 07:12:41;;;;;;;11.43;3.40;;;8.50;99.90;;;;;;4930713;29;20221;-82
2021/03/28 07:15:47;;;;;;;9.83;3.53;;;8.50;99.90;;;;;;4931332;29;20219;-82
2021/03/28 07:19:01;;;;;;;13.20;3.67;;;8.60;99.90;;;;;;4925806;29;20569;-83
2021/03/28 07:22:06;;;;;;;8.70;2.90;;;8.70;99.90;;;;;;4919302;29;20605;-81
2021/03/28 07:25:44;;;;;;;7.90;3.37;;;8.80;99.90;;;;;;4928272;29;20211;-79
2021/03/28 07:29:22;;;;;;;7.00;3.47;;;9.00;99.90;;;;;;4927053;29;20216;-84
2021/03/28 07:32:36;;;;;;;11.03;3.73;;;9.00;99.90;;;;;;4934903;29;20230;-84
2021/03/28 07:35:48;;;;;;;12.43;4.23;;;9.10;99.90;;;;;;4939774;29;20311;-83
2021/03/28 07:39:18;;;;;;;9.80;3.80;;;9.20;99.90;;;;;;4936145;29;20210;-81
2021/03/28 07:42:42;;;;;;;7.77;2.90;;;9.30;99.90;;;;;;4933409;28;20318;-83
2021/03/28 07:46:00;;;;;;;12.23;3.10;;;9.50;99.90;;;;;;4931024;29;20202;-82
2021/03/28 07:49:13;;;;;;;9.80;3.27;;;9.50;99.90;;;;;;4941679;29;20310;-82
2021/03/28 07:52:22;;;;;;;10.90;3.33;;;9.60;99.90;;;;;;4933369;29;20309;-84
2021/03/28 07:55:26;;;;;;;10.27;3.10;;;9.80;99.90;;;;;;4939900;29;20310;-82
2021/03/28 07:58:28;;;;;;;7.47;3.27;;;9.90;99.90;;;;;;4943108;29;20218;-81
2021/03/28 08:01:35;;;;;;;10.40;3.93;;;10.00;99.90;;;;;;4938848;29;20217;-82
2021/03/28 08:05:02;;;;;;;8.93;3.23;;;10.20;99.90;;;;;;4942681;29;20214;-81
2021/03/28 08:07:53;;;;;;;9.17;3.23;;;10.30;99.90;;;;;;4939456;29;20218;-82
2021/03/28 08:10:53;;;;;;;6.03;2.70;;;10.40;99.90;;;;;;4941256;29;20301;-81
2021/03/28 08:14:21;;;;;;;9.47;3.50;;;10.50;99.90;;;;;;4941161;29;20683;-84
2021/03/28 08:17:38;;;;;;;8.00;3.03;;;10.50;99.90;;;;;;4945835;29;20452;-81
2021/03/28 08:20:47;;;;;;;11.73;3.43;;;10.60;99.90;;;;;;4939478;29;20255;-79
2021/03/28 08:24:19;;;;;;;13.37;3.87;;;10.60;99.90;;;;;;4938737;29;20211;-81
2021/03/28 08:27:39;;;;;;;8.03;3.73;;;10.70;99.90;;;;;;4924214;29;20570;-80
2021/03/28 08:31:26;;;;;;;8.67;3.27;;;10.70;99.90;;;;;;4885640;29;20575;-80
2021/03/28 08:34:53;;;;;;;11.70;3.80;;;10.80;99.90;;;;;;4921981;28;20224;-77
2021/03/28 08:49:49;;;;;;;10.90;3.87;;;10.90;99.90;;;;;;4863921;29;20335;-82
2021/03/28 08:53:10;;;;;;;12.87;3.93;;;11.00;99.90;;;;;;4936494;29;20222;-80
2021/03/28 08:56:28;;;;;;;10.23;3.97;;;11.10;99.90;;;;;;4930173;29;20234;-80
2021/03/28 08:59:26;;;;;;;8.17;3.60;;;11.30;99.90;;;;;;4938419;29;20236;-79
2021/03/28 09:02:31;;;;;;;11.73;4.13;;;11.40;99.90;;;;;;4930364;29;20247;-82
2021/03/28 09:05:21;;;;;;;9.03;3.57;;;11.60;99.90;;;;;;4933682;29;20219;-80
2021/03/28 09:08:16;;;;;;;11.03;3.90;;;11.70;99.90;;;;;;4934979;29;20285;-81
2021/03/28 09:11:33;;;;;;;12.57;3.67;;;12.00;99.90;;;;;;4928669;29;20219;-81
2021/03/28 09:14:46;;;;;;;13.20;4.43;;;12.00;99.90;;;;;;4931349;29;20227;-80
2021/03/28 09:17:41;;;;;;;9.47;4.20;;;12.10;99.90;;;;;;4931543;29;20275;-81
2021/03/28 09:20:46;;;;;;;12.30;3.73;;;12.20;99.90;;;;;;4934299;29;20418;-82
2021/03/28 09:23:46;;;;;;;13.23;4.03;;;12.40;99.90;;;;;;4933153;29;20218;-79
2021/03/28 09:26:43;;;;;;;12.63;4.40;;;12.60;99.90;;;;;;4930999;29;20211;-82
2021/03/28 09:29:44;;;;;;;9.87;3.60;;;12.90;99.90;;;;;;4928931;29;20736;-81
2021/03/28 09:32:48;;;;;;;13.13;3.47;;;13.20;99.90;;;;;;4932574;29;20287;-82
2021/03/28 09:36:11;;;;;;;8.17;4.03;;;13.50;99.90;;;;;;4931218;29;20222;-80
2021/03/28 09:39:23;;;;;;;6.27;4.10;;;13.90;99.90;;;;;;4926177;29;20634;-80
2021/03/28 09:42:37;;;;;;;11.00;4.40;;;14.20;99.90;;;;;;4927699;29;20222;-83
2021/03/28 09:45:38;;;;;;;11.30;4.00;;;14.40;99.90;;;;;;4928679;29;20208;-83
2021/03/28 09:48:59;;;;;;;7.17;3.60;;;14.70;99.90;;;;;;4925827;29;20211;-81
2021/03/28 09:52:17;;;;;;;11.43;5.00;;;15.00;99.90;;;;;;4933367;29;20314;-80
2021/03/28 09:55:26;;;;;;;12.83;4.30;;;15.20;99.90;;;;;;4929141;29;20617;-81
2021/03/28 09:58:46;;;;;;;10.43;3.37;;;15.40;99.90;;;;;;4926280;29;20222;-81
2021/03/28 10:01:48;;;;;;;11.20;3.27;;;15.70;99.90;;;;;;4926677;29;20755;-80
2021/03/28 10:04:59;;;;;;;8.77;3.60;;;16.00;99.90;;;;;;4932209;29;20221;-83
2021/03/28 10:08:08;;;;;;;6.87;3.20;;;16.40;99.90;;;;;;4931927;29;20770;-83
2021/03/28 10:11:09;;;;;;;6.47;2.37;;;16.90;99.90;;;;;;4930960;29;20247;-83
2021/03/28 10:14:09;;;;;;;9.30;3.90;;;17.10;99.90;;;;;;4933306;29;20218;-82
2021/03/28 10:17:12;;;;;;;8.60;3.20;;;17.40;99.90;;;;;;4930540;29;20658;-82
2021/03/28 10:20:11;;;;;;;9.77;3.70;;;17.50;99.90;;;;;;4923418;29;20206;-81
2021/03/28 10:23:12;;;;;;;8.73;3.10;;;17.80;97.50;;;;;;4927502;29;20296;-82
2021/03/28 10:26:11;;;;;;;5.50;2.40;;;18.10;97.40;;;;;;4927360;29;20742;-82
2021/03/28 10:29:44;;;;;;;8.27;4.00;;;18.30;95.10;;;;;;4931065;29;20512;-83
2021/03/28 10:32:56;;;;;;;7.97;2.90;;;18.50;95.10;;;;;;4924426;29;20734;-81
2021/03/28 10:35:57;;;;;;;7.17;2.77;;;18.70;93.40;;;;;;4926408;29;20235;-82
2021/03/28 10:38:56;;;;;;;8.43;3.00;;;18.80;90.70;;;;;;4929190;29;20279;-83
2021/03/28 10:41:53;;;;;;;6.07;2.90;;;18.90;87.90;;;;;;4924773;29;20236;-84
2021/03/28 10:45:10;;;;;;;9.30;3.20;;;19.00;85.90;;;;;;4930285;29;20820;-83
2021/03/28 10:48:49;;;;;;;8.30;3.40;;;19.00;89.60;;;;;;4927235;29;20211;-82
2021/03/28 10:52:03;;;;;;;5.63;2.50;;;18.90;85.80;;;;;;4929872;29;20257;-82
2021/03/28 10:55:22;;;;;;;7.13;2.93;;;18.80;85.80;;;;;;4934948;29;20228;-83
2021/03/28 10:58:47;;;;;;;7.10;2.67;;;18.70;84.50;;;;;;4927597;29;20707;-84
2021/03/28 11:02:18;;;;;;;6.47;2.93;;;18.50;85.90;;;;;;4926104;29;20230;-82
2021/03/28 11:05:50;;;;;;;4.77;2.50;;;18.40;86.50;;;;;;4938458;29;20231;-83
2021/03/28 11:09:04;;;;;;;7.20;3.20;;;18.20;89.90;;;;;;4944342;29;20488;-82
2021/03/28 11:12:08;;;;;;;6.90;2.30;;;18.10;84.90;;;;;;4934420;29;20279;-83
2021/03/28 11:15:27;;;;;;;9.33;3.47;;;18.00;87.40;;;;;;4936838;29;20329;-82
2021/03/28 11:18:47;;;;;;;6.63;3.00;;;17.80;88.90;;;;;;4935840;29;20671;-81
2021/03/28 11:25:24;;;;;;;8.33;2.77;;;17.40;88.60;;;;;;4932285;29;20671;-83
2021/03/28 11:28:27;;;;;;;6.87;3.00;;;17.00;88.10;;;;;;4927627;29;20214;-84
2021/03/28 12:09:33;;;;;;;5.27;2.80;;;15.10;95.00;;;;;;4718930;30;20232;-81
2021/03/28 12:27:40;;;;;;;10.33;3.13;;;14.70;96.20;;;;;;4723856;30;20876;-82
2021/03/28 12:30:47;;;;;;;7.30;3.10;;;14.60;96.20;;;;;;4813846;29;20307;-82
2021/03/28 12:33:52;;;;;;;8.47;3.33;;;14.70;96.80;;;;;;4900998;29;20216;-80
2021/03/28 12:37:01;;;;;;;8.43;3.23;;;14.60;97.10;;;;;;4936932;29;20293;-80
2021/03/28 12:40:37;;;;;;;11.60;3.27;;;14.50;97.90;;;;;;4932199;29;20290;-82
2021/03/28 12:43:37;;;;;;;10.13;3.87;;;14.50;97.40;;;;;;4934671;29;20218;-80
2021/03/28 12:47:05;;;;;;;8.23;4.00;;;14.50;97.60;;;;;;4933515;29;20215;-83
2021/03/28 12:50:06;;;;;;;;;;;;;;;;;;;;;
2021/03/28 12:53:04;;;;;;;5.80;3.47;;;14.30;97.80;;;;;;4873021;29;20336;-83
2021/03/28 12:56:29;;;;;;;7.33;3.40;;;14.30;98.30;;;;;;4932336;29;20235;-81
2021/03/28 12:59:36;;;;;;;6.00;3.13;;;14.20;98.20;;;;;;4934980;29;20655;-82
2021/03/28 13:06:34;;;;;;;10.00;3.37;;;14.10;99.80;;;;;;4937570;29;20235;-85
2021/03/28 13:09:39;;;;;;;8.13;3.97;;;14.10;99.10;;;;;;4938497;29;20261;-82
2021/03/28 13:13:33;;;;;;;;;;;;;;;;;;;;;
2021/03/28 13:16:53;;;;;;;7.10;3.27;;;14.20;98.60;;;;;;4859312;29;20726;-84
2021/03/28 13:27:13;;;;;;;9.97;4.20;;;14.10;99.10;;;;;;4925608;29;20337;-83
2021/03/28 13:30:02;;;;;;;10.33;3.57;;;14.10;98.60;;;;;;4934804;29;20218;-82
2021/03/28 13:32:48;;;;;;;8.20;4.90;;;14.10;99.10;;;;;;4937004;29;20215;-83
2021/03/28 13:35:37;;;;;;;9.17;4.10;;;14.00;99.00;;;;;;4937485;29;20223;-84
2021/03/28 13:38:34;;;;;;;9.77;3.67;;;14.00;99.40;;;;;;4931494;29;20596;-83
2021/03/28 13:41:26;;;;;;;8.50;3.83;;;14.00;99.30;;;;;;4949521;29;20235;-84
2021/03/28 13:44:26;;;;;;;8.37;3.80;;;14.00;99.90;;;;;;4932469;29;20223;-84
2021/03/28 13:47:12;;;;;;;13.47;4.03;;;13.80;99.70;;;;;;4935924;29;20202;-83
2021/03/28 13:50:15;;;;;;;10.82;3.20;;;13.80;99.90;;;;;;4938781;29;20559;-85
2021/03/28 13:53:04;;;;;;;8.90;4.07;;;13.80;99.90;;;;;;4930825;29;20230;-82
2021/03/28 13:55:52;;;;;;;8.57;3.43;;;13.70;99.90;;;;;;4941690;29;20728;-83
2021/03/28 13:58:39;;;;;;;11.17;4.13;;;13.80;99.90;;;;;;4938351;29;20215;-84
2021/03/28 14:01:28;;;;;;;8.73;4.10;;;13.70;99.90;;;;;;4930647;29;20230;-83
2021/03/28 14:04:27;;;;;;;9.40;3.90;;;13.70;99.90;;;;;;4934225;29;20220;-83
2021/03/28 14:07:22;;;;;;;9.00;3.97;;;13.70;99.90;;;;;;4936454;29;20215;-84
2021/03/28 14:10:35;;;;;;;10.47;4.20;;;13.80;99.90;;;;;;4930567;29;20224;-83
2021/03/28 14:13:24;;;;;;;9.87;4.10;;;13.80;99.90;;;;;;4931152;29;20212;-83
2021/03/28 14:16:13;;;;;;;10.67;4.40;;;13.70;99.90;;;;;;4937295;29;20236;-83
2021/03/28 14:19:09;;;;;;;9.53;4.33;;;13.70;99.90;;;;;;4932021;29;20222;-84
2021/03/28 14:21:54;;;;;;;11.00;5.07;;;13.70;99.90;;;;;;4938447;29;20331;-83
2021/03/28 14:24:52;;;;;;;9.67;4.67;;;13.70;99.90;;;;;;4932680;29;20290;-83
2021/03/28 14:27:38;;;;;;;10.37;5.50;;;13.70;99.90;;;;;;4942700;29;20216;-84
2021/03/28 14:30:25;;;;;;;13.53;5.40;;;13.70;99.90;;;;;;4928199;29;20207;-84
2021/03/28 14:33:25;;;;;;;12.57;4.80;;;13.70;99.90;;;;;;4934370;29;20231;-83
2021/03/28 14:36:28;;;;;;;13.83;4.90;;;13.70;99.90;;;;;;4933653;29;20362;-83
2021/03/28 14:39:48;;;;;;;14.57;5.20;;;13.80;99.90;;;;;;4939405;29;20210;-84
2021/03/28 14:42:46;;;;;;;10.50;5.17;;;13.90;99.90;;;;;;4936948;29;20382;-82
2021/03/28 14:45:37;;;;;;;8.63;4.63;;;13.90;99.90;;;;;;4936632;29;20278;-83
2021/03/28 14:48:34;;;;;;;9.20;4.97;;;13.90;99.90;;;;;;4943731;29;20320;-85
2021/03/28 14:51:25;;;;;;;11.50;4.77;;;14.00;99.90;;;;;;4940134;28;20311;-84
2021/03/28 14:54:26;;;;;;;6.53;4.17;;;14.00;99.90;;;;;;4934792;29;20259;-84
2021/03/28 14:57:15;;;;;;;10.03;4.30;;;14.10;99.90;;;;;;4957238;29;20193;-84
2021/03/28 15:00:06;;;;;;;12.93;4.67;;;14.10;99.90;;;;;;4949715;29;20197;-84
2021/03/28 15:03:11;;;;;;;10.63;4.33;;;14.10;99.90;;;;;;4950049;29;20295;-83
2021/03/28 15:06:11;;;;;;;10.60;4.10;;;14.20;99.90;;;;;;4938313;29;20283;-84
2021/03/28 15:09:02;;;;;;;5.07;2.50;;;14.20;99.90;;;;;;4952485;29;20223;-84
2021/03/28 15:11:52;;;;;;;10.43;4.07;;;14.20;99.90;;;;;;4936466;29;20247;-84
2021/03/28 15:14:44;;;;;;;7.13;3.73;;;14.20;99.90;;;;;;4943972;29;20222;-84
2021/03/28 15:17:46;;;;;;;7.33;3.10;;;14.20;99.90;;;;;;4941642;29;20312;-84
2021/03/28 15:20:35;;;;;;;9.97;3.73;;;14.30;99.90;;;;;;4944311;29;20225;-84
2021/03/28 15:23:27;;;;;;;9.10;3.83;;;14.30;99.90;;;;;;4944794;29;20250;-84
2021/03/28 15:26:32;;;;;;;8.90;3.80;;;14.40;99.90;;;;;;4942080;29;20213;-84
2021/03/28 15:29:25;;;;;;;7.97;3.30;;;14.40;99.90;;;;;;4938551;29;20206;-83
2021/03/28 15:32:45;;;;;;;11.40;3.57;;;14.40;99.90;;;;;;4938022;29;20239;-83
2021/03/28 15:35:41;;;;;;;8.67;3.20;;;14.40;99.90;;;;;;4932657;29;20230;-82
2021/03/28 15:38:55;;;;;;;12.17;4.73;;;14.40;99.90;;;;;;4927518;29;20245;-83
2021/03/28 15:41:56;;;;;;;12.50;3.97;;;14.40;99.90;;;;;;4932276;29;20260;-83
2021/03/28 15:45:16;;;;;;;10.93;3.70;;;14.40;99.90;;;;;;4932923;29;20527;-83
2021/03/28 15:48:20;;;;;;;10.97;3.77;;;14.40;99.90;;;;;;4938520;29;20728;-84
2021/03/28 15:51:15;;;;;;;13.37;3.90;;;14.40;99.90;;;;;;4934708;29;20236;-83
2021/03/28 15:54:23;;;;;;;11.93;4.00;;;14.30;99.90;;;;;;4933096;29;20263;-83
2021/03/28 15:57:22;;;;;;;11.03;3.83;;;14.30;99.90;;;;;;4932772;29;20207;-83
2021/03/28 16:00:21;;;;;;;7.80;3.27;;;14.30;99.90;;;;;;4937043;29;20635;-83
2021/03/28 16:03:25;;;;;;;12.37;3.83;;;14.30;99.90;;;;;;4937820;29;20237;-83
2021/03/28 16:06:21;;;;;;;9.80;3.93;;;14.30;99.90;;;;;;4936113;29;20285;-83
2021/03/28 16:09:36;;;;;;;13.87;3.87;;;14.40;99.90;;;;;;4937340;29;20263;-82
2021/03/28 16:13:10;;;;;;;8.30;2.93;;;14.30;99.90;;;;;;4942938;29;20741;-80
2021/03/28 16:16:34;;;;;;;7.00;2.93;;;14.20;99.90;;;;;;4920489;29;20463;-83
2021/03/28 16:19:53;;;;;;;8.97;3.10;;;14.20;99.90;;;;;;4942315;29;20200;-83
2021/03/28 16:23:00;;;;;;;10.17;3.13;;;14.20;99.90;;;;;;4946227;29;20210;-82
2021/03/28 16:26:27;;;;;;;10.33;3.90;;;14.10;99.90;;;;;;4943248;29;20355;-82
2021/03/28 16:29:32;;;;;;;7.10;2.83;;;14.10;99.90;;;;;;4939103;29;20216;-82
2021/03/28 16:32:44;;;;;;;7.03;3.07;;;14.10;99.90;;;;;;4941445;29;20257;-83
2021/03/28 16:35:58;;;;;;;7.40;3.67;;;14.00;99.90;;;;;;4942114;29;20230;-81
2021/03/28 16:39:11;;;;;;;11.20;3.60;;;14.00;99.90;;;;;;4938579;29;20636;-83
2021/03/28 16:42:24;;;;;;;7.93;3.07;;;14.00;99.90;;;;;;4939394;29;20243;-83
2021/03/28 16:45:31;;;;;;;11.83;3.40;;;13.90;99.90;;;;;;4932359;29;20224;-82
2021/03/28 16:48:24;;;;;;;8.40;2.67;;;13.90;99.90;;;;;;4938799;29;20214;-81
2021/03/28 16:51:22;;;;;;;10.63;3.17;;;13.90;99.90;;;;;;4937935;29;20264;-81
2021/03/28 16:54:15;;;;;;;10.70;2.93;;;13.90;99.90;;;;;;4938923;29;20207;-82
2021/03/28 16:57:16;;;;;;;12.47;3.67;;;13.90;99.90;;;;;;4940577;29;20218;-82
2021/03/28 17:00:13;;;;;;;10.10;3.67;;;13.80;99.90;;;;;;4940530;29;20263;-82
2021/03/28 17:03:19;;;;;;;11.63;3.10;;;13.90;99.90;;;;;;4940640;29;20538;-82
2021/03/28 17:06:05;;;;;;;11.33;3.70;;;13.80;99.90;;;;;;4940736;29;20236;-82
2021/03/28 17:09:04;;;;;;;8.77;2.93;;;13.70;99.90;;;;;;4941994;29;20215;-82
2021/03/28 17:12:10;;;;;;;11.80;3.70;;;13.80;99.90;;;;;;4929950;29;20268;-83
2021/03/28 17:15:01;;;;;;;9.53;3.77;;;13.80;99.90;;;;;;4933405;29;20281;-83
2021/03/28 17:17:57;;;;;;;6.70;2.97;;;13.80;99.90;;;;;;4947095;29;20247;-83
2021/03/28 17:21:09;;;;;;;11.77;3.50;;;13.70;99.90;;;;;;4932988;29;20243;-83
2021/03/28 17:24:15;;;;;;;8.27;3.23;;;13.70;99.90;;;;;;4933990;29;20210;-84